Time,TemperatureF,DewpointF,PressureIn,WindDirection,WindDirectionDegrees,WindSpeedMPH,WindSpeedGustMPH,Humidity,HourlyPrecipIn,Conditions,Clouds,dailyrainin,SoftwareType,DateUTC
2013-04-12 00:00:00,68.2,66.7,29.72,SW,223,4.0,9.0,95,0.16,,,0.00,WeatherTracker,2013-04-12 05:00:00,
2013-04-12 00:05:00,68.2,66.7,29.72,South,181,1.0,8.0,95,0.16,,,0.00,WeatherTracker,2013-04-12 05:05:00,
2013-04-12 00:10:00,68.2,66.7,29.72,SSW,213,0.0,8.0,95,0.16,,,0.00,WeatherTracker,2013-04-12 05:10:00,
2013-04-12 00:15:00,68.2,66.7,29.72,SSW,210,0.0,4.0,95,0.16,,,0.00,WeatherTracker,2013-04-12 05:15:00,
2013-04-12 00:20:00,68.2,66.7,29.72,SW,229,1.0,4.0,95,0.16,,,0.00,WeatherTracker,2013-04-12 05:20:00,
2013-04-12 00:25:00,68.2,66.7,29.72,SW,229,0.0,4.0,95,0.16,,,0.00,WeatherTracker,2013-04-12 05:25:00,
2013-04-12 00:30:00,68.1,66.6,29.72,SW,229,0.0,3.0,95,0.16,,,0.00,WeatherTracker,2013-04-12 05:30:00,
2013-04-12 00:35:00,68.1,66.6,29.72,SW,234,1.0,4.0,95,0.16,,,0.00,WeatherTracker,2013-04-12 05:35:00,
2013-04-12 00:40:00,68.1,66.6,29.73,West,263,4.0,4.0,95,0.16,,,0.00,WeatherTracker,2013-04-12 05:40:00,
2013-04-12 00:50:00,68.0,66.5,29.73,West,262,3.0,4.0,95,0.16,,,0.00,WeatherTracker,2013-04-12 05:50:00,
2013-04-12 00:55:00,67.9,66.4,29.73,West,263,3.0,5.0,95,0.00,,,0.00,WeatherTracker,2013-04-12 05:55:00,
2013-04-12 01:05:00,67.8,66.6,29.73,West,259,2.0,8.0,96,0.00,,,0.00,WeatherTracker,2013-04-12 06:05:00,
2013-04-12 01:10:00,67.7,66.5,29.72,West,260,3.0,8.0,96,0.00,,,0.00,WeatherTracker,2013-04-12 06:10:00,
2013-04-12 01:15:00,67.7,66.5,29.72,WSW,252,3.0,4.0,96,0.00,,,0.00,WeatherTracker,2013-04-12 06:15:00,
2013-04-12 01:20:00,67.7,66.5,29.71,West,281,1.0,5.0,96,0.00,,,0.00,WeatherTracker,2013-04-12 06:20:00,
2013-04-12 01:30:00,67.6,66.4,29.72,West,261,3.0,4.0,96,0.00,,,0.00,WeatherTracker,2013-04-12 06:30:00,
2013-04-12 01:35:00,67.5,66.3,29.72,WSW,258,2.0,3.0,96,0.01,,,0.01,WeatherTracker,2013-04-12 06:35:00,
2013-04-12 01:40:00,67.5,66.3,29.72,SW,236,0.0,5.0,96,0.01,,,0.01,WeatherTracker,2013-04-12 06:40:00,
2013-04-12 01:45:00,67.5,66.3,29.72,WSW,239,3.0,5.0,96,0.01,,,0.01,WeatherTracker,2013-04-12 06:45:00,
2013-04-12 01:50:00,67.4,66.2,29.72,WSW,244,2.0,6.0,96,0.01,,,0.01,WeatherTracker,2013-04-12 06:50:00,
2013-04-12 02:00:00,67.2,66.0,29.72,West,274,3.0,6.0,96,0.01,,,0.01,WeatherTracker,2013-04-12 07:00:00,
2013-04-12 02:05:00,66.8,65.6,29.72,WNW,302,6.0,15.0,96,0.01,,,0.01,WeatherTracker,2013-04-12 07:05:00,
2013-04-12 02:10:00,65.9,64.4,29.72,WNW,287,7.0,15.0,95,0.01,,,0.01,WeatherTracker,2013-04-12 07:10:00,
2013-04-12 02:15:00,65.1,63.6,29.72,NW,319,5.0,15.0,95,0.01,,,0.01,WeatherTracker,2013-04-12 07:15:00,
2013-04-12 02:20:00,64.7,63.2,29.72,NW,306,4.0,12.0,95,0.01,,,0.01,WeatherTracker,2013-04-12 07:20:00,
2013-04-12 02:30:00,64.3,62.8,29.72,NW,313,4.0,11.0,95,0.01,,,0.01,WeatherTracker,2013-04-12 07:30:00,
2013-04-12 02:35:00,64.0,62.5,29.73,NW,321,4.0,11.0,95,0.00,,,0.01,WeatherTracker,2013-04-12 07:35:00,
2013-04-12 02:45:00,63.5,62.0,29.73,NW,305,7.0,10.0,95,0.00,,,0.01,WeatherTracker,2013-04-12 07:45:00,
2013-04-12 02:50:00,63.3,61.8,29.73,WNW,297,4.0,9.0,95,0.00,,,0.01,WeatherTracker,2013-04-12 07:50:00,
2013-04-12 02:55:00,63.2,61.7,29.73,NNW,331,2.0,9.0,95,0.00,,,0.01,WeatherTracker,2013-04-12 07:55:00,
2013-04-12 03:05:00,62.9,61.4,29.73,NW,323,4.0,8.0,95,0.00,,,0.01,WeatherTracker,2013-04-12 08:05:00,
2013-04-12 03:10:00,62.7,61.2,29.73,NW,324,4.0,8.0,95,0.00,,,0.01,WeatherTracker,2013-04-12 08:10:00,
2013-04-12 03:15:00,62.5,61.0,29.73,NW,310,4.0,8.0,95,0.00,,,0.01,WeatherTracker,2013-04-12 08:15:00,
2013-04-12 03:25:00,62.2,60.7,29.73,NNW,328,0.0,8.0,95,0.00,,,0.01,WeatherTracker,2013-04-12 08:25:00,
2013-04-12 03:35:00,62.1,60.6,29.73,NW,312,2.0,7.0,95,0.00,,,0.01,WeatherTracker,2013-04-12 08:35:00,
2013-04-12 03:45:00,61.9,60.4,29.73,NW,317,3.0,8.0,95,0.00,,,0.01,WeatherTracker,2013-04-12 08:45:00,
2013-04-12 03:50:00,61.8,60.6,29.74,NNW,329,4.0,8.0,96,0.00,,,0.01,WeatherTracker,2013-04-12 08:50:00,
2013-04-12 03:55:00,61.7,60.5,29.74,NW,314,4.0,9.0,96,0.00,,,0.01,WeatherTracker,2013-04-12 08:55:00,
2013-04-12 04:05:00,61.5,60.1,29.75,WNW,302,3.0,8.0,95,0.00,,,0.01,WeatherTracker,2013-04-12 09:05:00,
2013-04-12 04:15:00,61.4,60.2,29.75,NNW,331,6.0,8.0,96,0.00,,,0.01,WeatherTracker,2013-04-12 09:15:00,
2013-04-12 04:20:00,61.3,60.1,29.75,NW,324,3.0,9.0,96,0.00,,,0.01,WeatherTracker,2013-04-12 09:20:00,
2013-04-12 04:25:00,61.1,59.9,29.75,WNW,300,2.0,9.0,96,0.00,,,0.01,WeatherTracker,2013-04-12 09:25:00,
2013-04-12 04:30:00,61.0,59.8,29.75,NNW,331,4.0,9.0,96,0.00,,,0.01,WeatherTracker,2013-04-12 09:30:00,
2013-04-12 04:40:00,60.8,59.4,29.75,NNW,327,4.0,9.0,95,0.00,,,0.01,WeatherTracker,2013-04-12 09:40:00,
2013-04-12 04:50:00,60.5,59.1,29.76,NW,321,7.0,12.0,95,0.00,,,0.01,WeatherTracker,2013-04-12 09:50:00,
2013-04-12 04:55:00,60.4,59.0,29.76,NNW,337,8.0,12.0,95,0.00,,,0.01,WeatherTracker,2013-04-12 09:55:00,
2013-04-12 05:05:00,60.1,58.7,29.77,North,360,8.0,11.0,95,0.00,,,0.01,WeatherTracker,2013-04-12 10:05:00,
2013-04-12 05:15:00,59.8,58.4,29.77,NW,312,5.0,12.0,95,0.00,,,0.01,WeatherTracker,2013-04-12 10:15:00,
2013-04-12 05:20:00,59.6,58.2,29.77,NNW,327,8.0,14.0,95,0.00,,,0.01,WeatherTracker,2013-04-12 10:20:00,
2013-04-12 05:25:00,59.4,58.0,29.77,NW,317,5.0,14.0,95,0.00,,,0.01,WeatherTracker,2013-04-12 10:25:00,
2013-04-12 05:30:00,59.2,57.8,29.77,NW,321,8.0,13.0,95,0.00,,,0.01,WeatherTracker,2013-04-12 10:30:00,
2013-04-12 05:35:00,59.1,58.0,29.77,NNW,335,4.0,13.0,96,0.00,,,0.01,WeatherTracker,2013-04-12 10:35:00,
2013-04-12 05:40:00,58.9,57.5,29.77,NNW,337,5.0,13.0,95,0.00,,,0.01,WeatherTracker,2013-04-12 10:40:00,
2013-04-12 05:50:00,58.6,57.5,29.77,North,5,10.0,14.0,96,0.00,,,0.01,WeatherTracker,2013-04-12 10:50:00,
2013-04-12 05:55:00,58.5,57.4,29.77,NNW,338,9.0,14.0,96,0.00,,,0.01,WeatherTracker,2013-04-12 10:55:00,
2013-04-12 06:00:00,58.4,57.3,29.78,North,349,5.0,14.0,96,0.00,,,0.01,WeatherTracker,2013-04-12 11:00:00,
2013-04-12 06:10:00,58.4,57.3,29.78,NNW,331,7.0,11.0,96,0.00,,,0.01,WeatherTracker,2013-04-12 11:10:00,
2013-04-12 06:15:00,58.4,57.3,29.79,NW,319,3.0,10.0,96,0.00,,,0.01,WeatherTracker,2013-04-12 11:15:00,
2013-04-12 06:20:00,58.3,57.2,29.80,North,355,9.0,13.0,96,0.00,,,0.01,WeatherTracker,2013-04-12 11:20:00,
2013-04-12 06:30:00,57.7,56.6,29.80,NNW,343,12.0,14.0,96,0.00,,,0.01,WeatherTracker,2013-04-12 11:30:00,
2013-04-12 06:35:00,57.3,56.2,29.80,NNE,22,9.0,13.0,96,0.00,,,0.01,WeatherTracker,2013-04-12 11:35:00,
2013-04-12 06:40:00,57.2,56.1,29.81,North,11,9.0,14.0,96,0.00,,,0.01,WeatherTracker,2013-04-12 11:40:00,
2013-04-12 06:45:00,56.9,55.5,29.81,North,5,7.0,18.0,95,0.00,,,0.01,WeatherTracker,2013-04-12 11:45:00,
2013-04-12 06:55:00,56.9,55.5,29.82,North,360,5.0,15.0,95,0.00,,,0.01,WeatherTracker,2013-04-12 11:55:00,
2013-04-12 07:00:00,56.8,55.4,29.82,NW,311,6.0,12.0,95,0.00,,,0.01,WeatherTracker,2013-04-12 12:00:00,
2013-04-12 07:05:00,56.8,55.4,29.83,NNW,336,7.0,10.0,95,0.00,,,0.01,WeatherTracker,2013-04-12 12:05:00,
2013-04-12 07:10:00,56.8,55.4,29.83,NNW,342,8.0,10.0,95,0.00,,,0.01,WeatherTracker,2013-04-12 12:10:00,
2013-04-12 07:15:00,56.6,55.2,29.84,NNW,327,5.0,9.0,95,0.00,,,0.01,WeatherTracker,2013-04-12 12:15:00,
2013-04-12 07:25:00,56.3,54.9,29.84,NW,326,8.0,11.0,95,0.00,,,0.01,WeatherTracker,2013-04-12 12:25:00,
2013-04-12 07:35:00,56.1,54.7,29.84,NW,311,6.0,10.0,95,0.00,,,0.01,WeatherTracker,2013-04-12 12:35:00,
2013-04-12 07:45:00,55.5,54.1,29.85,NNE,14,6.0,16.0,95,0.00,,,0.01,WeatherTracker,2013-04-12 12:45:00,
2013-04-12 07:55:00,54.9,53.2,29.86,NNW,331,5.0,15.0,94,0.00,,,0.01,WeatherTracker,2013-04-12 12:55:00,
2013-04-12 08:00:00,54.7,53.0,29.86,NW,319,9.0,15.0,94,0.00,,,0.01,WeatherTracker,2013-04-12 13:00:00,
2013-04-12 08:10:00,54.4,52.4,29.86,NW,319,9.0,12.0,93,0.00,,,0.01,WeatherTracker,2013-04-12 13:10:00,
2013-04-12 08:15:00,54.4,52.4,29.86,NNW,334,8.0,12.0,93,0.00,,,0.01,WeatherTracker,2013-04-12 13:15:00,
2013-04-12 08:25:00,54.7,52.7,29.86,North,5,9.0,12.0,93,0.00,,,0.01,WeatherTracker,2013-04-12 13:25:00,
2013-04-12 08:30:00,54.9,52.6,29.86,North,350,7.0,12.0,92,0.00,,,0.01,WeatherTracker,2013-04-12 13:30:00,
2013-04-12 08:35:00,55.1,52.5,29.86,NW,319,5.0,12.0,91,0.00,,,0.01,WeatherTracker,2013-04-12 13:35:00,
2013-04-12 08:45:00,55.1,52.2,29.86,NNW,342,6.0,14.0,90,0.00,,,0.01,WeatherTracker,2013-04-12 13:45:00,
2013-04-12 08:50:00,55.0,51.8,29.86,NNW,334,9.0,13.0,89,0.00,,,0.01,WeatherTracker,2013-04-12 13:50:00,
2013-04-12 08:55:00,54.9,51.4,29.87,NW,325,10.0,13.0,88,0.00,,,0.01,WeatherTracker,2013-04-12 13:55:00,
2013-04-12 09:00:00,54.9,51.4,29.87,North,355,8.0,13.0,88,0.00,,,0.01,WeatherTracker,2013-04-12 14:00:00,
2013-04-12 09:10:00,55.7,51.6,29.87,North,355,10.0,15.0,86,0.00,,,0.01,WeatherTracker,2013-04-12 14:10:00,
2013-04-12 09:15:00,55.9,51.5,29.88,NNW,339,8.0,15.0,85,0.00,,,0.01,WeatherTracker,2013-04-12 14:15:00,
2013-04-12 09:25:00,56.8,52.3,29.88,NNW,330,9.0,12.0,85,0.00,,,0.01,WeatherTracker,2013-04-12 14:25:00,
2013-04-12 09:35:00,57.6,52.5,29.88,NW,313,8.0,13.0,83,0.00,,,0.01,WeatherTracker,2013-04-12 14:35:00,
2013-04-12 09:40:00,57.8,52.0,29.88,North,5,6.0,13.0,81,0.00,,,0.01,WeatherTracker,2013-04-12 14:40:00,
2013-04-12 09:50:00,58.9,52.7,29.88,NNW,342,6.0,11.0,80,0.00,,,0.01,WeatherTracker,2013-04-12 14:50:00,
2013-04-12 09:55:00,59.3,52.4,29.88,North,360,5.0,11.0,78,0.00,,,0.01,WeatherTracker,2013-04-12 14:55:00,
2013-04-12 10:05:00,60.2,52.6,29.88,NNE,15,8.0,14.0,76,0.00,,,0.01,WeatherTracker,2013-04-12 15:05:00,
2013-04-12 10:10:00,60.4,52.4,29.89,North,5,5.0,14.0,75,0.00,,,0.01,WeatherTracker,2013-04-12 15:10:00,
2013-04-12 10:20:00,61.0,51.9,29.89,North,360,6.0,14.0,72,0.00,,,0.01,WeatherTracker,2013-04-12 15:20:00,
2013-04-12 10:25:00,61.5,52.4,29.89,NNW,327,6.0,12.0,72,0.00,,,0.01,WeatherTracker,2013-04-12 15:25:00,
2013-04-12 10:30:00,61.9,52.8,29.89,North,355,4.0,11.0,72,0.00,,,0.01,WeatherTracker,2013-04-12 15:30:00,
2013-04-12 10:35:00,62.3,52.8,29.89,North,360,4.0,10.0,71,0.00,,,0.01,WeatherTracker,2013-04-12 15:35:00,
2013-04-12 10:45:00,62.8,50.9,29.89,North,5,5.0,12.0,65,0.00,,,0.01,WeatherTracker,2013-04-12 15:45:00,
2013-04-12 10:55:00,63.4,51.8,29.89,NNW,344,8.0,13.0,66,0.01,,,0.02,WeatherTracker,2013-04-12 15:55:00,
2013-04-12 11:05:00,64.2,51.3,29.89,North,360,7.0,13.0,63,0.01,,,0.02,WeatherTracker,2013-04-12 16:05:00,
2013-04-12 11:15:00,64.6,50.8,29.89,North,355,4.0,13.0,61,0.01,,,0.02,WeatherTracker,2013-04-12 16:15:00,
2013-04-12 11:20:00,65.2,51.4,29.89,NNW,338,5.0,11.0,61,0.01,,,0.02,WeatherTracker,2013-04-12 16:20:00,
2013-04-12 11:25:00,65.4,50.7,29.89,NNE,22,7.0,13.0,59,0.01,,,0.02,WeatherTracker,2013-04-12 16:25:00,
2013-04-12 11:30:00,65.6,49.9,29.89,North,350,5.0,13.0,57,0.01,,,0.02,WeatherTracker,2013-04-12 16:30:00,
2013-04-12 11:35:00,65.9,50.7,29.89,NW,309,2.0,13.0,58,0.01,,,0.02,WeatherTracker,2013-04-12 16:35:00,
2013-04-12 11:45:00,66.5,51.3,29.89,NNE,26,5.0,10.0,58,0.01,,,0.02,WeatherTracker,2013-04-12 16:45:00,
2013-04-12 11:50:00,66.5,52.2,29.89,NNE,33,7.0,11.0,60,0.00,,,0.02,WeatherTracker,2013-04-12 16:50:00,
2013-04-12 12:00:00,67.1,51.3,29.89,NW,314,5.0,12.0,57,0.00,,,0.02,WeatherTracker,2013-04-12 17:00:00,
2013-04-12 12:05:00,67.4,51.1,29.89,North,360,7.0,12.0,56,0.00,,,0.02,WeatherTracker,2013-04-12 17:05:00,
2013-04-12 12:10:00,67.6,50.8,29.89,NE,40,7.0,12.0,55,0.00,,,0.02,WeatherTracker,2013-04-12 17:10:00,
2013-04-12 12:15:00,67.6,48.3,29.89,NNE,29,7.0,16.0,50,0.00,,,0.02,WeatherTracker,2013-04-12 17:15:00,
2013-04-12 12:20:00,67.5,48.2,29.89,NNW,348,5.0,16.0,50,0.00,,,0.02,WeatherTracker,2013-04-12 17:20:00,
2013-04-12 12:25:00,68.1,48.2,29.89,NNW,338,10.0,14.0,49,0.00,,,0.02,WeatherTracker,2013-04-12 17:25:00,
2013-04-12 12:35:00,67.6,48.3,29.89,North,5,9.0,14.0,50,0.00,,,0.02,WeatherTracker,2013-04-12 17:35:00,
2013-04-12 12:40:00,67.9,48.6,29.89,NNE,19,6.0,14.0,50,0.00,,,0.02,WeatherTracker,2013-04-12 17:40:00,
2013-04-12 12:50:00,68.6,49.7,29.89,NNW,336,10.0,14.0,51,0.00,,,0.02,WeatherTracker,2013-04-12 17:50:00,
2013-04-12 12:55:00,68.6,49.7,29.89,NW,317,12.0,14.0,51,0.00,,,0.02,WeatherTracker,2013-04-12 17:55:00,
2013-04-12 13:05:00,69.1,50.7,29.89,NW,318,5.0,13.0,52,0.00,,,0.02,WeatherTracker,2013-04-12 18:05:00,
2013-04-12 13:10:00,69.6,51.7,29.89,NNW,344,7.0,13.0,53,0.00,,,0.02,WeatherTracker,2013-04-12 18:10:00,
2013-04-12 13:15:00,69.4,51.5,29.89,North,360,8.0,13.0,53,0.00,,,0.02,WeatherTracker,2013-04-12 18:15:00,
2013-04-12 13:25:00,69.1,50.2,29.90,NNW,342,8.0,15.0,51,0.00,,,0.02,WeatherTracker,2013-04-12 18:25:00,
2013-04-12 14:30:00,70.0,52.1,29.88,North,11,9.0,13.0,53,0.00,,,0.02,WeatherTracker,2013-04-12 19:30:00,
2013-04-12 14:35:00,70.1,48.9,29.87,NW,319,10.0,11.0,47,0.00,,,0.02,WeatherTracker,2013-04-12 19:35:00,
2013-04-12 14:40:00,70.3,49.1,29.87,North,5,13.0,14.0,47,0.00,,,0.02,WeatherTracker,2013-04-12 19:40:00,
2013-04-12 14:50:00,70.0,49.9,29.88,NE,40,7.0,15.0,49,0.00,,,0.02,WeatherTracker,2013-04-12 19:50:00,
2013-04-12 15:00:00,70.0,48.8,29.88,NNW,329,2.0,14.0,47,0.00,,,0.02,WeatherTracker,2013-04-12 20:00:00,
2013-04-12 15:10:00,69.9,50.4,29.88,NNE,31,4.0,11.0,50,0.00,,,0.02,WeatherTracker,2013-04-12 20:10:00,
2013-04-12 15:20:00,69.9,50.4,29.88,NNE,15,6.0,10.0,50,0.00,,,0.02,WeatherTracker,2013-04-12 20:20:00,
2013-04-12 15:25:00,70.1,51.1,29.88,North,351,8.0,12.0,51,0.00,,,0.02,WeatherTracker,2013-04-12 20:25:00,
2013-04-12 15:35:00,70.6,49.4,29.88,NNW,333,7.0,11.0,47,0.00,,,0.02,WeatherTracker,2013-04-12 20:35:00,
2013-04-12 15:40:00,70.6,51.6,29.88,NNE,18,6.0,10.0,51,0.00,,,0.02,WeatherTracker,2013-04-12 20:40:00,
2013-04-12 15:50:00,70.5,50.4,29.87,ENE,76,10.0,11.0,49,0.00,,,0.02,WeatherTracker,2013-04-12 20:50:00,
2013-04-12 15:55:00,70.6,49.9,29.88,NW,321,4.0,12.0,48,0.00,,,0.02,WeatherTracker,2013-04-12 20:55:00,
2013-04-12 16:00:00,70.7,50.0,29.88,North,9,8.0,12.0,48,0.00,,,0.02,WeatherTracker,2013-04-12 21:00:00,
2013-04-12 16:05:00,70.6,51.6,29.88,NNW,345,7.0,11.0,51,0.00,,,0.02,WeatherTracker,2013-04-12 21:05:00,
2013-04-12 16:15:00,71.2,50.5,29.88,North,360,9.0,11.0,48,0.00,,,0.02,WeatherTracker,2013-04-12 21:15:00,
2013-04-12 16:20:00,71.0,50.3,29.88,North,351,0.0,11.0,48,0.00,,,0.02,WeatherTracker,2013-04-12 21:20:00,
2013-04-12 16:30:00,71.6,51.4,29.87,NNE,16,4.0,7.0,49,0.00,,,0.02,WeatherTracker,2013-04-12 21:30:00,
2013-04-12 16:35:00,71.1,49.8,29.87,North,5,5.0,10.0,47,0.00,,,0.02,WeatherTracker,2013-04-12 21:35:00,
2013-04-12 16:40:00,70.8,50.1,29.87,North,360,6.0,10.0,48,0.00,,,0.02,WeatherTracker,2013-04-12 21:40:00,
2013-04-12 16:50:00,71.0,49.7,29.87,NW,326,6.0,11.0,47,0.00,,,0.02,WeatherTracker,2013-04-12 21:50:00,
2013-04-12 17:00:00,70.7,48.9,29.87,NNW,336,5.0,11.0,46,0.00,,,0.02,WeatherTracker,2013-04-12 22:00:00,
2013-04-12 17:05:00,70.6,48.8,29.87,NNW,336,6.0,11.0,46,0.00,,,0.02,WeatherTracker,2013-04-12 22:05:00,
2013-04-12 17:10:00,70.6,50.5,29.88,NNW,334,1.0,10.0,49,0.00,,,0.02,WeatherTracker,2013-04-12 22:10:00,
2013-04-12 17:15:00,70.8,49.0,29.88,North,355,5.0,10.0,46,0.00,,,0.02,WeatherTracker,2013-04-12 22:15:00,
2013-04-12 17:25:00,70.7,48.9,29.88,NW,315,7.0,11.0,46,0.00,,,0.02,WeatherTracker,2013-04-12 22:25:00,
2013-04-12 17:30:00,70.6,49.9,29.87,NW,315,4.0,11.0,48,0.00,,,0.02,WeatherTracker,2013-04-12 22:30:00,
2013-04-12 17:35:00,70.7,49.5,29.87,WNW,302,8.0,9.0,47,0.00,,,0.02,WeatherTracker,2013-04-12 22:35:00,
2013-04-12 17:40:00,70.5,51.5,29.88,NNW,344,6.0,9.0,51,0.00,,,0.02,WeatherTracker,2013-04-12 22:40:00,
2013-04-12 17:50:00,70.0,49.4,29.87,North,350,5.0,12.0,48,0.00,,,0.02,WeatherTracker,2013-04-12 22:50:00,
2013-04-12 17:55:00,69.8,49.2,29.87,NNE,15,6.0,11.0,48,0.00,,,0.02,WeatherTracker,2013-04-12 22:55:00,
2013-04-12 18:05:00,69.5,48.4,29.87,NNW,331,5.0,10.0,47,0.00,,,0.02,WeatherTracker,2013-04-12 23:05:00,
2013-04-12 18:10:00,69.4,49.9,29.87,NNW,345,2.0,8.0,50,0.00,,,0.02,WeatherTracker,2013-04-12 23:10:00,
2013-04-12 18:15:00,69.4,50.5,29.86,NNW,338,3.0,7.0,51,0.00,,,0.02,WeatherTracker,2013-04-12 23:15:00,
2013-04-12 18:20:00,69.4,49.9,29.86,North,350,3.0,6.0,50,0.00,,,0.02,WeatherTracker,2013-04-12 23:20:00,
2013-04-12 18:25:00,69.2,49.8,29.87,NNW,329,4.0,10.0,50,0.00,,,0.02,WeatherTracker,2013-04-12 23:25:00,
2013-04-12 18:35:00,68.6,50.3,29.86,NNW,330,2.0,8.0,52,0.00,,,0.02,WeatherTracker,2013-04-12 23:35:00,
2013-04-12 18:40:00,68.2,50.4,29.86,North,355,5.0,8.0,53,0.00,,,0.02,WeatherTracker,2013-04-12 23:40:00,
2013-04-12 18:50:00,67.6,50.4,29.87,NNW,333,3.0,7.0,54,0.00,,,0.02,WeatherTracker,2013-04-12 23:50:00,
2013-04-12 18:55:00,67.3,52.0,29.87,NNW,333,0.0,5.0,58,0.00,,,0.02,WeatherTracker,2013-04-12 23:55:00,
2013-04-12 19:05:00,66.8,52.0,29.88,NNW,333,0.0,1.0,59,0.00,,,0.02,WeatherTracker,2013-04-13 00:05:00,
2013-04-12 19:10:00,66.7,52.8,29.88,NNW,333,0.0,0.0,61,0.00,,,0.02,WeatherTracker,2013-04-13 00:10:00,
2013-04-12 19:20:00,65.9,52.9,29.89,NNW,333,0.0,0.0,63,0.00,,,0.02,WeatherTracker,2013-04-13 00:20:00,
2013-04-12 19:25:00,65.4,53.3,29.89,NNW,333,0.0,0.0,65,0.00,,,0.02,WeatherTracker,2013-04-13 00:25:00,
2013-04-12 19:30:00,64.8,54.8,29.89,NNW,333,0.0,0.0,70,0.00,,,0.02,WeatherTracker,2013-04-13 00:30:00,
2013-04-12 19:40:00,63.2,53.6,29.89,NNW,333,0.0,0.0,71,0.00,,,0.02,WeatherTracker,2013-04-13 00:40:00,
2013-04-12 19:45:00,62.4,52.5,29.89,NNW,333,0.0,0.0,70,0.00,,,0.02,WeatherTracker,2013-04-13 00:45:00,
2013-04-12 19:55:00,61.8,51.9,29.89,NNW,333,0.0,0.0,70,0.00,,,0.02,WeatherTracker,2013-04-13 00:55:00,
2013-04-12 20:00:00,61.6,52.1,29.90,NNW,333,0.0,0.0,71,0.00,,,0.02,WeatherTracker,2013-04-13 01:00:00,
2013-04-12 20:05:00,61.3,52.2,29.90,NNW,333,0.0,0.0,72,0.00,,,0.02,WeatherTracker,2013-04-13 01:05:00,
2013-04-12 20:10:00,60.6,51.1,29.90,NNW,333,0.0,0.0,71,0.00,,,0.02,WeatherTracker,2013-04-13 01:10:00,
2013-04-12 20:20:00,60.0,49.8,29.90,NW,314,1.0,4.0,69,0.00,,,0.02,WeatherTracker,2013-04-13 01:20:00,
2013-04-12 20:30:00,60.0,49.8,29.91,NW,314,3.0,3.0,69,0.00,,,0.02,WeatherTracker,2013-04-13 01:30:00,
2013-04-12 20:35:00,60.1,50.3,29.91,NW,314,1.0,3.0,70,0.00,,,0.02,WeatherTracker,2013-04-13 01:35:00,
2013-04-12 20:45:00,59.9,49.7,29.91,NW,314,2.0,4.0,69,0.00,,,0.02,WeatherTracker,2013-04-13 01:45:00,
2013-04-12 20:55:00,59.7,50.3,29.91,NW,314,0.0,3.0,71,0.00,,,0.02,WeatherTracker,2013-04-13 01:55:00,
2013-04-12 21:05:00,59.4,50.0,29.91,NW,314,0.0,0.0,71,0.00,,,0.02,WeatherTracker,2013-04-13 02:05:00,
2013-04-12 21:10:00,59.2,50.2,29.92,NW,314,0.0,0.0,72,0.00,,,0.02,WeatherTracker,2013-04-13 02:10:00,
2013-04-12 21:20:00,58.8,50.9,29.92,NW,314,0.0,0.0,75,0.00,,,0.02,WeatherTracker,2013-04-13 02:20:00,
2013-04-12 21:25:00,58.7,51.9,29.93,NW,314,0.0,0.0,78,0.00,,,0.02,WeatherTracker,2013-04-13 02:25:00,
2013-04-12 21:35:00,58.2,51.0,29.94,NW,314,0.0,0.0,77,0.00,,,0.02,WeatherTracker,2013-04-13 02:35:00,
2013-04-12 21:40:00,57.8,50.6,29.94,NW,314,0.0,0.0,77,0.00,,,0.02,WeatherTracker,2013-04-13 02:40:00,
2013-04-12 21:45:00,57.5,50.3,29.94,NW,314,0.0,0.0,77,0.00,,,0.02,WeatherTracker,2013-04-13 02:45:00,
2013-04-12 21:55:00,56.8,50.0,29.94,NW,314,0.0,0.0,78,0.00,,,0.02,WeatherTracker,2013-04-13 02:55:00,
2013-04-12 22:00:00,56.4,50.0,29.94,NW,314,0.0,0.0,79,0.00,,,0.02,WeatherTracker,2013-04-13 03:00:00,
2013-04-12 22:10:00,55.6,49.5,29.95,NW,314,0.0,0.0,80,0.00,,,0.02,WeatherTracker,2013-04-13 03:10:00,
2013-04-12 22:15:00,55.2,49.5,29.95,NW,314,0.0,0.0,81,0.00,,,0.02,WeatherTracker,2013-04-13 03:15:00,
2013-04-12 22:25:00,54.6,49.5,29.94,NW,314,0.0,0.0,83,0.00,,,0.02,WeatherTracker,2013-04-13 03:25:00,
2013-04-12 22:30:00,54.3,49.6,29.95,NW,314,0.0,0.0,84,0.00,,,0.02,WeatherTracker,2013-04-13 03:30:00,
2013-04-12 22:40:00,53.9,49.2,29.95,NW,314,0.0,0.0,84,0.00,,,0.02,WeatherTracker,2013-04-13 03:40:00,
2013-04-12 22:50:00,53.5,49.1,29.95,NW,314,0.0,0.0,85,0.00,,,0.02,WeatherTracker,2013-04-13 03:50:00,
2013-04-12 22:55:00,53.3,48.9,29.95,NW,314,0.0,0.0,85,0.00,,,0.02,WeatherTracker,2013-04-13 03:55:00,
2013-04-12 23:00:00,53.1,48.7,29.95,NW,314,0.0,0.0,85,0.00,,,0.02,WeatherTracker,2013-04-13 04:00:00,
2013-04-12 23:10:00,53.2,49.4,29.95,NW,314,0.0,1.0,87,0.00,,,0.02,WeatherTracker,2013-04-13 04:10:00,
2013-04-12 23:15:00,53.2,49.4,29.95,NW,314,0.0,0.0,87,0.00,,,0.02,WeatherTracker,2013-04-13 04:15:00,
2013-04-12 23:25:00,53.3,49.8,29.96,NW,314,0.0,0.0,88,0.00,,,0.02,WeatherTracker,2013-04-13 04:25:00,
2013-04-12 23:35:00,53.4,49.9,29.95,NW,314,0.0,0.0,88,0.00,,,0.02,WeatherTracker,2013-04-13 04:35:00,
2013-04-12 23:40:00,53.3,49.8,29.95,NW,314,0.0,0.0,88,0.00,,,0.02,WeatherTracker,2013-04-13 04:40:00,
2013-04-12 23:50:00,53.1,49.3,29.95,NW,314,0.0,0.0,87,0.00,,,0.02,WeatherTracker,2013-04-13 04:50:00,